Virtual United States Air Force

 METAR AND TAF INFORMATION
METAR FOR KSUU
ADDS - METARS form results

(2207 UTC 29 March 2020)
Data provider http://aviationweather.gov/metar/data/
 
METAR text: KSUU 292158Z AUTO 00000KT 10SM FEW046 BKN060 14/10 A3012 RMK AO2 RAB19E54 SLP207 P0002 T01430103 $
Conditions at: KSUU (TRAVIS AFB/FAIRF, CA, US) observed 2158 UTC 29 March 2020
Temperature: 14.3°C (58°F)
Dewpoint: 10.3°C (51°F) [RH = 77%]
Pressure (altimeter): 30.12 inches Hg (1020.1 mb)
[Sea-level pressure: 1020.7 mb]
Winds: calm
Visibility: 10 or more miles (16+ km)
Ceiling: 6000 feet AGL
Clouds: few clouds at 4600 feet AGL
broken clouds at 6000 feet AGL
Weather:
SOME DATA ABOVE MAY BE INACCURATE!!!
"$" is an indication the sensor requires maintenance

METAR text: KSUU 292154Z AUTO 00000KT 10SM FEW036 SCT046 OVC060 14/10 A3012 RMK AO2 RAB19E54 SLP207 $
Conditions at: KSUU (TRAVIS AFB/FAIRF, CA, US) observed 2154 UTC 29 March 2020
Temperature: 14.0°C (57°F)
Dewpoint: 10.0°C (50°F) [RH = 77%]
Pressure (altimeter): 30.12 inches Hg (1020.1 mb)
[Sea-level pressure: 1020.7 mb]
Winds: calm
Visibility: 10 or more miles (16+ km)
Ceiling: 6000 feet AGL
Clouds: few clouds at 3600 feet AGL
scattered clouds at 4600 feet AGL
overcast cloud deck at 6000 feet AGL
Weather:
SOME DATA ABOVE MAY BE INACCURATE!!!
"$" is an indication the sensor requires maintenance

METAR text: KSUU 292119Z AUTO 20008KT 9SM RA FEW004 OVC033 16/08 A3013 RMK AO2 RAB19 SLP210 $
Conditions at: KSUU (TRAVIS AFB/FAIRF, CA, US) observed 2119 UTC 29 March 2020
Temperature: 16.0°C (61°F)
Dewpoint: 8.0°C (46°F) [RH = 59%]
Pressure (altimeter): 30.13 inches Hg (1020.4 mb)
[Sea-level pressure: 1021.0 mb]
Winds: from the SSW (200 degrees) at 9 MPH (8 knots; 4.1 m/s)
Visibility: 9 miles (14 km)
Ceiling: 3300 feet AGL
Clouds: few clouds at 400 feet AGL
overcast cloud deck at 3300 feet AGL
Weather: RA  (moderate rain)
SOME DATA ABOVE MAY BE INACCURATE!!!
"$" is an indication the sensor requires maintenance

METAR text: KSUU 292117Z AUTO 20009KT 10SM FEW004 OVC033 16/08 A3013 RMK AO2 SLP210 $
Conditions at: KSUU (TRAVIS AFB/FAIRF, CA, US) observed 2117 UTC 29 March 2020
Temperature: 16.0°C (61°F)
Dewpoint: 8.0°C (46°F) [RH = 59%]
Pressure (altimeter): 30.13 inches Hg (1020.4 mb)
[Sea-level pressure: 1021.0 mb]
Winds: from the SSW (200 degrees) at 10 MPH (9 knots; 4.6 m/s)
Visibility: 10 or more miles (16+ km)
Ceiling: 3300 feet AGL
Clouds: few clouds at 400 feet AGL
overcast cloud deck at 3300 feet AGL
Weather:
SOME DATA ABOVE MAY BE INACCURATE!!!
"$" is an indication the sensor requires maintenance

Forecast for: KSUU (TRAVIS AFB/FAIRF, CA, US)
Text: TAF KSUU 2919/3101 20010KT 9999 -SHRA SCT018 BKN025 QNH3009INS
Forecast period: 1900 to 2300 UTC 29 March 2020
Forecast type: FROM: standard forecast or significant change
Winds: from the SSW (200 degrees) at 12 MPH (10 knots; 5.1 m/s)
Visibility: 6 or more miles 10+ km)
Ceiling: 2500 feet AGL
Clouds: scattered clouds at 1800 feet AGL
broken clouds at 2500 feet AGL
Weather: -SHRA  (light rain showers)
Text: TEMPO 2919/2923 BKN015
Forecast period: 1900 to 2300 UTC 29 March 2020
Forecast type: TEMPORARY: The following changes expected for less than half the time period
Visibility: missing
Ceiling: 1500 feet AGL
Clouds: broken clouds at 1500 feet AGL
Weather: no significant weather forecast for this period
Text: BECMG 2923/2924 23012KT 9999 NSW SCT030 BKN050 QNH3007INS
Forecast period: 2300 UTC 29 March 2020 to 1700 UTC 30 March 2020
Forecast type: BECOMING: Conditions expected to become as follows by 0000 UTC 30 March 2020
Winds: from the SW (230 degrees) at 14 MPH (12 knots; 6.2 m/s)
Visibility: 6 or more miles 10+ km)
Ceiling: 5000 feet AGL
Clouds: scattered clouds at 3000 feet AGL
broken clouds at 5000 feet AGL
Weather: NSW  (no significant weather)
Text: BECMG 3017/3018 23012G18KT 9999 SCT030 QNH3015INS TX19/2923Z TN07/3014Z
Forecast period: 1700 UTC 30 March 2020 to 0100 UTC 31 March 2020
Forecast type: BECOMING: Conditions expected to become as follows by 1800 UTC 30 March 2020
Winds: from the SW (230 degrees) at 14 MPH (12 knots; 6.2 m/s)
gusting to 21 MPH (18 knots; 9.3 m/s)
Visibility: 6 or more miles 10+ km)
Ceiling: at least 12,000 feet AGL
Clouds: scattered clouds at 3000 feet AGL
Weather: NSW  (no significant weather)

 AIRPORT MAP

 RUNWAY INFORMATION
Runway 03L Runway length 11001 ft Runway width 150 ft
Runway elevation 36 ft Runway displaced threshold 0 ft Runway heading 48
Runway 21R Runway length 11001 ft Runway width 150 ft
Runway elevation 53 ft Runway displaced threshold 0 ft Runway heading 228
Runway 03R Runway length 10992 ft Runway width 150 ft
Runway elevation 56 ft Runway displaced threshold 0 ft Runway heading 48
Runway 21L Runway length 10992 ft Runway width 150 ft
Runway elevation 55 ft Runway displaced threshold 0 ft Runway heading 228

 AIRPORT FREQUENCIES
Type APP Name APP Frequency 119.9 MHZ
Type ATIS Name ATIS Frequency 116.4 MHZ
Type CLD Name CLNC DEL Frequency 127.55 MHZ
Type DEP Name DEP Frequency 119.9 MHZ
Type GND Name GND Frequency 121.8 MHZ
Type PMSV Name PMSV METRO Frequency 26.92 MHZ
Type POST Name COMD POST Frequency 141.9 MHZ
Type PTD Name PTD Frequency 28.557 MHZ
Type TWR Name TWR Frequency 120.75 MHZ
Type UNIC Name AERO CLUB Frequency 123.3 MHZ

 AIRPORT NEAR NAVIGATION AIDS


Neither the Department of the Air Force, nor any other component of the Department of Defense or Federal Government has approved, endorsed, or authorized this promotion, activity, or organization. Virtual United States Air Force organization is in no way affiliated with the Department of Defense, Department of the Air Force, or any other federal or government entity. Virtual United States Air Force is a group of flight simulation enthusiasts with the common interest of promoting enjoyment and cameraderie through the simulation of military operations and procedures utilizing several flight simulation platforms.

Copyright © vUSAF, LLC // 2018 All Rights Reserved